<?xml version="1.0" encoding="UTF-8" standalone="no" ?>
<gpx xmlns="http://www.topografix.com/GPX/1/1" xmlns:xsi="http://www.w3.org/2001/XMLSchema-instance" xsi:schemaLocation="http://www.topografix.com/GPX/1/1 http://www.topografix.com/GPX/1/1/gpx.xsd" version="1.1" creator="VisuGPX - https://www.visugpx.com">
  <metadata>
    <name>CAF chateaufarine</name>
    <desc><![CDATA[17km 250 m de denivelé!!!!!!!!!!]]></desc>
  </metadata>
  <trk>
    <name><![CDATA[02 06 Chateaufarine]]></name>
    <trkseg>
      <trkpt lat="47.21331" lon="5.94574">
        <ele>281</ele>
        <time>2018-02-05T10:27:55Z</time>
      </trkpt>
      <trkpt lat="47.213" lon="5.94535">
        <ele>282</ele>
        <time>2018-02-05T10:28:55Z</time>
      </trkpt>
      <trkpt lat="47.21094" lon="5.94523">
        <ele>285</ele>
        <time>2018-02-05T10:29:55Z</time>
      </trkpt>
      <trkpt lat="47.21045" lon="5.94526">
        <ele>287</ele>
        <time>2018-02-05T10:30:55Z</time>
      </trkpt>
      <trkpt lat="47.20653" lon="5.94441">
        <ele>285</ele>
        <time>2018-02-05T10:31:55Z</time>
      </trkpt>
      <trkpt lat="47.20682" lon="5.94213">
        <ele>278</ele>
        <time>2018-02-05T10:32:55Z</time>
      </trkpt>
      <trkpt lat="47.20775" lon="5.94152">
        <ele>274</ele>
        <time>2018-02-05T10:33:55Z</time>
      </trkpt>
      <trkpt lat="47.2083" lon="5.94034">
        <ele>272</ele>
        <time>2018-02-05T10:34:55Z</time>
      </trkpt>
      <trkpt lat="47.20882" lon="5.93885">
        <ele>278</ele>
        <time>2018-02-05T10:35:55Z</time>
      </trkpt>
      <trkpt lat="47.20952" lon="5.93664">
        <ele>278</ele>
        <time>2018-02-05T10:36:55Z</time>
      </trkpt>
      <trkpt lat="47.20987" lon="5.93524">
        <ele>284</ele>
        <time>2018-02-05T10:37:55Z</time>
      </trkpt>
      <trkpt lat="47.21012" lon="5.93448">
        <ele>288</ele>
        <time>2018-02-05T10:38:55Z</time>
      </trkpt>
      <trkpt lat="47.21065" lon="5.93318">
        <ele>290</ele>
        <time>2018-02-05T10:39:55Z</time>
      </trkpt>
      <trkpt lat="47.20991" lon="5.93257">
        <ele>287</ele>
        <time>2018-02-05T10:40:55Z</time>
      </trkpt>
      <trkpt lat="47.20981" lon="5.93209">
        <ele>285</ele>
        <time>2018-02-05T10:41:55Z</time>
      </trkpt>
      <trkpt lat="47.20995" lon="5.93133">
        <ele>282</ele>
        <time>2018-02-05T10:42:55Z</time>
      </trkpt>
      <trkpt lat="47.20995" lon="5.93024">
        <ele>280</ele>
        <time>2018-02-05T10:43:55Z</time>
      </trkpt>
      <trkpt lat="47.20973" lon="5.92963">
        <ele>281</ele>
        <time>2018-02-05T10:44:55Z</time>
      </trkpt>
      <trkpt lat="47.20919" lon="5.92799">
        <ele>284</ele>
        <time>2018-02-05T10:45:55Z</time>
      </trkpt>
      <trkpt lat="47.20862" lon="5.92604">
        <ele>280</ele>
        <time>2018-02-05T10:46:55Z</time>
      </trkpt>
      <trkpt lat="47.20812" lon="5.92497">
        <ele>281</ele>
        <time>2018-02-05T10:47:55Z</time>
      </trkpt>
      <trkpt lat="47.20755" lon="5.92385">
        <ele>285</ele>
        <time>2018-02-05T10:48:55Z</time>
      </trkpt>
      <trkpt lat="47.20718" lon="5.92309">
        <ele>286</ele>
        <time>2018-02-05T10:49:55Z</time>
      </trkpt>
      <trkpt lat="47.20635" lon="5.92006">
        <ele>287</ele>
        <time>2018-02-05T10:50:55Z</time>
      </trkpt>
      <trkpt lat="47.20455" lon="5.91671">
        <ele>271</ele>
        <time>2018-02-05T10:51:55Z</time>
      </trkpt>
      <trkpt lat="47.20377" lon="5.91767">
        <ele>268</ele>
        <time>2018-02-05T10:52:55Z</time>
      </trkpt>
      <trkpt lat="47.2036" lon="5.91964">
        <ele>273</ele>
        <time>2018-02-05T10:53:55Z</time>
      </trkpt>
      <trkpt lat="47.20334" lon="5.92033">
        <ele>271</ele>
        <time>2018-02-05T10:54:55Z</time>
      </trkpt>
      <trkpt lat="47.20332" lon="5.92098">
        <ele>270</ele>
        <time>2018-02-05T10:55:55Z</time>
      </trkpt>
      <trkpt lat="47.20342" lon="5.92116">
        <ele>270</ele>
        <time>2018-02-05T10:56:55Z</time>
      </trkpt>
      <trkpt lat="47.20155" lon="5.92524">
        <ele>282</ele>
        <time>2018-02-05T10:57:55Z</time>
      </trkpt>
      <trkpt lat="47.20169" lon="5.92629">
        <ele>285</ele>
        <time>2018-02-05T10:58:55Z</time>
      </trkpt>
      <trkpt lat="47.20125" lon="5.92687">
        <ele>281</ele>
        <time>2018-02-05T10:59:55Z</time>
      </trkpt>
      <trkpt lat="47.20096" lon="5.92801">
        <ele>281</ele>
        <time>2018-02-05T11:00:55Z</time>
      </trkpt>
      <trkpt lat="47.20072" lon="5.92917">
        <ele>275</ele>
        <time>2018-02-05T11:01:55Z</time>
      </trkpt>
      <trkpt lat="47.1996" lon="5.93357">
        <ele>268</ele>
        <time>2018-02-05T11:02:55Z</time>
      </trkpt>
      <trkpt lat="47.19806" lon="5.93272">
        <ele>266</ele>
        <time>2018-02-05T11:03:55Z</time>
      </trkpt>
      <trkpt lat="47.19593" lon="5.93157">
        <ele>265</ele>
        <time>2018-02-05T11:04:55Z</time>
      </trkpt>
      <trkpt lat="47.19577" lon="5.93112">
        <ele>265</ele>
        <time>2018-02-05T11:05:55Z</time>
      </trkpt>
      <trkpt lat="47.19336" lon="5.92978">
        <ele>272</ele>
        <time>2018-02-05T11:06:55Z</time>
      </trkpt>
      <trkpt lat="47.19292" lon="5.93005">
        <ele>269</ele>
        <time>2018-02-05T11:07:55Z</time>
      </trkpt>
      <trkpt lat="47.19175" lon="5.93142">
        <ele>265</ele>
        <time>2018-02-05T11:08:55Z</time>
      </trkpt>
      <trkpt lat="47.19144" lon="5.93139">
        <ele>265</ele>
        <time>2018-02-05T11:09:55Z</time>
      </trkpt>
      <trkpt lat="47.19099" lon="5.93124">
        <ele>264</ele>
        <time>2018-02-05T11:10:55Z</time>
      </trkpt>
      <trkpt lat="47.19047" lon="5.93109">
        <ele>261</ele>
        <time>2018-02-05T11:11:55Z</time>
      </trkpt>
      <trkpt lat="47.18948" lon="5.93007">
        <ele>249.643036</ele>
        <time>2018-02-05T11:12:55Z</time>
      </trkpt>
      <trkpt lat="47.18961" lon="5.9281">
        <ele>256.097504</ele>
        <time>2018-02-05T11:13:55Z</time>
      </trkpt>
      <trkpt lat="47.1889" lon="5.92779">
        <ele>256.923737</ele>
        <time>2018-02-05T11:14:55Z</time>
      </trkpt>
      <trkpt lat="47.18861" lon="5.92744">
        <ele>256.325012</ele>
        <time>2018-02-05T11:15:55Z</time>
      </trkpt>
      <trkpt lat="47.18863" lon="5.92702">
        <ele>258</ele>
        <time>2018-02-05T11:16:55Z</time>
      </trkpt>
      <trkpt lat="47.18903" lon="5.92593">
        <ele>262</ele>
        <time>2018-02-05T11:17:55Z</time>
      </trkpt>
      <trkpt lat="47.18969" lon="5.9248">
        <ele>272.548737</ele>
        <time>2018-02-05T11:18:55Z</time>
      </trkpt>
      <trkpt lat="47.18991" lon="5.9235">
        <ele>271</ele>
        <time>2018-02-05T11:19:55Z</time>
      </trkpt>
      <trkpt lat="47.19016" lon="5.92262">
        <ele>269</ele>
        <time>2018-02-05T11:20:55Z</time>
      </trkpt>
      <trkpt lat="47.18995" lon="5.92204">
        <ele>271</ele>
        <time>2018-02-05T11:21:55Z</time>
      </trkpt>
      <trkpt lat="47.19006" lon="5.92162">
        <ele>271</ele>
        <time>2018-02-05T11:22:55Z</time>
      </trkpt>
      <trkpt lat="47.18962" lon="5.92098">
        <ele>269</ele>
        <time>2018-02-05T11:23:55Z</time>
      </trkpt>
      <trkpt lat="47.18911" lon="5.92225">
        <ele>270</ele>
        <time>2018-02-05T11:24:55Z</time>
      </trkpt>
      <trkpt lat="47.18863" lon="5.92216">
        <ele>269</ele>
        <time>2018-02-05T11:25:55Z</time>
      </trkpt>
      <trkpt lat="47.18769" lon="5.92238">
        <ele>271</ele>
        <time>2018-02-05T11:26:55Z</time>
      </trkpt>
      <trkpt lat="47.18696" lon="5.92247">
        <ele>271</ele>
        <time>2018-02-05T11:27:55Z</time>
      </trkpt>
      <trkpt lat="47.18663" lon="5.92244">
        <ele>270</ele>
        <time>2018-02-05T11:28:55Z</time>
      </trkpt>
      <trkpt lat="47.18641" lon="5.92204">
        <ele>269</ele>
        <time>2018-02-05T11:29:55Z</time>
      </trkpt>
      <trkpt lat="47.18597" lon="5.92174">
        <ele>267</ele>
        <time>2018-02-05T11:30:55Z</time>
      </trkpt>
      <trkpt lat="47.18511" lon="5.92183">
        <ele>260</ele>
        <time>2018-02-05T11:31:55Z</time>
      </trkpt>
      <trkpt lat="47.18474" lon="5.92174">
        <ele>258</ele>
        <time>2018-02-05T11:32:55Z</time>
      </trkpt>
      <trkpt lat="47.18373" lon="5.92131">
        <ele>253</ele>
        <time>2018-02-05T11:33:55Z</time>
      </trkpt>
      <trkpt lat="47.18321" lon="5.92046">
        <ele>251</ele>
        <time>2018-02-05T11:34:55Z</time>
      </trkpt>
      <trkpt lat="47.18276" lon="5.91983">
        <ele>249</ele>
        <time>2018-02-05T11:35:55Z</time>
      </trkpt>
      <trkpt lat="47.18261" lon="5.9191">
        <ele>245</ele>
        <time>2018-02-05T11:36:55Z</time>
      </trkpt>
      <trkpt lat="47.182" lon="5.91991">
        <ele>241.963379</ele>
        <time>2018-02-05T11:37:55Z</time>
      </trkpt>
      <trkpt lat="47.18173" lon="5.91955">
        <ele>253</ele>
        <time>2018-02-05T11:38:55Z</time>
      </trkpt>
      <trkpt lat="47.18181" lon="5.91858">
        <ele>253</ele>
        <time>2018-02-05T11:39:55Z</time>
      </trkpt>
      <trkpt lat="47.18177" lon="5.91785">
        <ele>252</ele>
        <time>2018-02-05T11:40:55Z</time>
      </trkpt>
      <trkpt lat="47.18164" lon="5.91719">
        <ele>252</ele>
        <time>2018-02-05T11:41:55Z</time>
      </trkpt>
      <trkpt lat="47.18173" lon="5.91637">
        <ele>252</ele>
        <time>2018-02-05T11:42:55Z</time>
      </trkpt>
      <trkpt lat="47.18156" lon="5.91567">
        <ele>253</ele>
        <time>2018-02-05T11:43:55Z</time>
      </trkpt>
      <trkpt lat="47.18102" lon="5.9147">
        <ele>253</ele>
        <time>2018-02-05T11:44:55Z</time>
      </trkpt>
      <trkpt lat="47.18074" lon="5.914">
        <ele>250</ele>
        <time>2018-02-05T11:45:55Z</time>
      </trkpt>
      <trkpt lat="47.17995" lon="5.91315">
        <ele>250</ele>
        <time>2018-02-05T11:46:55Z</time>
      </trkpt>
      <trkpt lat="47.17911" lon="5.91254">
        <ele>250</ele>
        <time>2018-02-05T11:47:55Z</time>
      </trkpt>
      <trkpt lat="47.17859" lon="5.91212">
        <ele>251</ele>
        <time>2018-02-05T11:48:55Z</time>
      </trkpt>
      <trkpt lat="47.1781" lon="5.91142">
        <ele>245</ele>
        <time>2018-02-05T11:49:55Z</time>
      </trkpt>
      <trkpt lat="47.17779" lon="5.91073">
        <ele>235.661423</ele>
        <time>2018-02-05T11:50:55Z</time>
      </trkpt>
      <trkpt lat="47.17787" lon="5.91027">
        <ele>235</ele>
        <time>2018-02-05T11:51:55Z</time>
      </trkpt>
      <trkpt lat="47.17785" lon="5.90957">
        <ele>232</ele>
        <time>2018-02-05T11:52:55Z</time>
      </trkpt>
      <trkpt lat="47.17729" lon="5.90939">
        <ele>230.598038</ele>
        <time>2018-02-05T11:53:55Z</time>
      </trkpt>
      <trkpt lat="47.17718" lon="5.90952">
        <ele>230.340988</ele>
        <time>2018-02-05T11:54:55Z</time>
      </trkpt>
      <trkpt lat="47.17658" lon="5.90844">
        <ele>227.000351</ele>
        <time>2018-02-05T11:55:55Z</time>
      </trkpt>
      <trkpt lat="47.17612" lon="5.90784">
        <ele>226</ele>
        <time>2018-02-05T11:56:55Z</time>
      </trkpt>
      <trkpt lat="47.1757" lon="5.90699">
        <ele>227</ele>
        <time>2018-02-05T11:57:55Z</time>
      </trkpt>
      <trkpt lat="47.17548" lon="5.90611">
        <ele>227</ele>
        <time>2018-02-05T11:58:55Z</time>
      </trkpt>
      <trkpt lat="47.17506" lon="5.90626">
        <ele>228</ele>
        <time>2018-02-05T11:59:55Z</time>
      </trkpt>
      <trkpt lat="47.17422" lon="5.90672">
        <ele>227</ele>
        <time>2018-02-05T12:00:55Z</time>
      </trkpt>
      <trkpt lat="47.17364" lon="5.90717">
        <ele>226</ele>
        <time>2018-02-05T12:01:55Z</time>
      </trkpt>
      <trkpt lat="47.17314" lon="5.90754">
        <ele>225</ele>
        <time>2018-02-05T12:02:55Z</time>
      </trkpt>
      <trkpt lat="47.17263" lon="5.9083">
        <ele>223</ele>
        <time>2018-02-05T12:03:55Z</time>
      </trkpt>
      <trkpt lat="47.17207" lon="5.90927">
        <ele>226</ele>
        <time>2018-02-05T12:04:55Z</time>
      </trkpt>
      <trkpt lat="47.1717" lon="5.90999">
        <ele>227</ele>
        <time>2018-02-05T12:05:55Z</time>
      </trkpt>
      <trkpt lat="47.17162" lon="5.91084">
        <ele>229</ele>
        <time>2018-02-05T12:06:55Z</time>
      </trkpt>
      <trkpt lat="47.17166" lon="5.9123">
        <ele>228</ele>
        <time>2018-02-05T12:07:55Z</time>
      </trkpt>
      <trkpt lat="47.1724" lon="5.91361">
        <ele>232</ele>
        <time>2018-02-05T12:08:55Z</time>
      </trkpt>
      <trkpt lat="47.17263" lon="5.91399">
        <ele>235</ele>
        <time>2018-02-05T12:09:55Z</time>
      </trkpt>
      <trkpt lat="47.17281" lon="5.91433">
        <ele>239</ele>
        <time>2018-02-05T12:10:55Z</time>
      </trkpt>
      <trkpt lat="47.17301" lon="5.91497">
        <ele>248.773209</ele>
        <time>2018-02-05T12:11:55Z</time>
      </trkpt>
      <trkpt lat="47.17277" lon="5.91521">
        <ele>252.176941</ele>
        <time>2018-02-05T12:12:55Z</time>
      </trkpt>
      <trkpt lat="47.17241" lon="5.91549">
        <ele>250.491638</ele>
        <time>2018-02-05T12:13:55Z</time>
      </trkpt>
      <trkpt lat="47.1725" lon="5.91655">
        <ele>268.231384</ele>
        <time>2018-02-05T12:14:55Z</time>
      </trkpt>
      <trkpt lat="47.17241" lon="5.91701">
        <ele>268.421387</ele>
        <time>2018-02-05T12:15:55Z</time>
      </trkpt>
      <trkpt lat="47.17277" lon="5.91792">
        <ele>280.759216</ele>
        <time>2018-02-05T12:16:55Z</time>
      </trkpt>
      <trkpt lat="47.17296" lon="5.91873">
        <ele>289.138641</ele>
        <time>2018-02-05T12:17:55Z</time>
      </trkpt>
      <trkpt lat="47.17308" lon="5.91946">
        <ele>293.155579</ele>
        <time>2018-02-05T12:18:55Z</time>
      </trkpt>
      <trkpt lat="47.17301" lon="5.91985">
        <ele>296.787903</ele>
        <time>2018-02-05T12:19:55Z</time>
      </trkpt>
      <trkpt lat="47.17308" lon="5.92072">
        <ele>306.285095</ele>
      </trkpt>
      <trkpt lat="47.17267" lon="5.92125">
        <ele>295.218719</ele>
        <time>2018-02-05T12:20:55Z</time>
      </trkpt>
      <trkpt lat="47.17289" lon="5.92184">
        <ele>308.347382</ele>
        <time>2018-02-05T12:21:55Z</time>
      </trkpt>
      <trkpt lat="47.17336" lon="5.92272">
        <ele>322.101624</ele>
        <time>2018-02-05T12:22:55Z</time>
      </trkpt>
      <trkpt lat="47.17342" lon="5.9233">
        <ele>322.818542</ele>
        <time>2018-02-05T12:23:55Z</time>
      </trkpt>
      <trkpt lat="47.17359" lon="5.92364">
        <ele>324.007568</ele>
        <time>2018-02-05T12:24:55Z</time>
      </trkpt>
      <trkpt lat="47.17393" lon="5.92386">
        <ele>325.511627</ele>
        <time>2018-02-05T12:25:55Z</time>
      </trkpt>
      <trkpt lat="47.17416" lon="5.92511">
        <ele>324</ele>
        <time>2018-02-05T12:26:55Z</time>
      </trkpt>
      <trkpt lat="47.17435" lon="5.92601">
        <ele>314</ele>
        <time>2018-02-05T12:27:55Z</time>
      </trkpt>
      <trkpt lat="47.17468" lon="5.9268">
        <ele>315</ele>
        <time>2018-02-05T12:28:55Z</time>
      </trkpt>
      <trkpt lat="47.17498" lon="5.9274">
        <ele>321</ele>
        <time>2018-02-05T12:29:55Z</time>
      </trkpt>
      <trkpt lat="47.1753" lon="5.92669">
        <ele>325</ele>
        <time>2018-02-05T12:30:55Z</time>
      </trkpt>
      <trkpt lat="47.17503" lon="5.92588">
        <ele>329</ele>
        <time>2018-02-05T12:31:55Z</time>
      </trkpt>
      <trkpt lat="47.17482" lon="5.92538">
        <ele>324</ele>
        <time>2018-02-05T12:32:55Z</time>
      </trkpt>
      <trkpt lat="47.1743" lon="5.92498">
        <ele>325</ele>
        <time>2018-02-05T12:33:55Z</time>
      </trkpt>
      <trkpt lat="47.17392" lon="5.92422">
        <ele>315</ele>
        <time>2018-02-05T12:34:55Z</time>
      </trkpt>
      <trkpt lat="47.17403" lon="5.92397">
        <ele>319</ele>
        <time>2018-02-05T12:35:55Z</time>
      </trkpt>
      <trkpt lat="47.17389" lon="5.92283">
        <ele>313</ele>
        <time>2018-02-05T12:36:55Z</time>
      </trkpt>
      <trkpt lat="47.17454" lon="5.92348">
        <ele>313</ele>
        <time>2018-02-05T12:37:55Z</time>
      </trkpt>
      <trkpt lat="47.17497" lon="5.92384">
        <ele>307</ele>
        <time>2018-02-05T12:38:55Z</time>
      </trkpt>
      <trkpt lat="47.17539" lon="5.92451">
        <ele>303</ele>
        <time>2018-02-05T12:39:55Z</time>
      </trkpt>
      <trkpt lat="47.17596" lon="5.92554">
        <ele>300</ele>
        <time>2018-02-05T12:40:55Z</time>
      </trkpt>
      <trkpt lat="47.17627" lon="5.92624">
        <ele>299</ele>
        <time>2018-02-05T12:41:55Z</time>
      </trkpt>
      <trkpt lat="47.17642" lon="5.92682">
        <ele>299</ele>
        <time>2018-02-05T12:42:55Z</time>
      </trkpt>
      <trkpt lat="47.17647" lon="5.92761">
        <ele>303</ele>
        <time>2018-02-05T12:43:55Z</time>
      </trkpt>
      <trkpt lat="47.17654" lon="5.9285">
        <ele>307</ele>
        <time>2018-02-05T12:44:55Z</time>
      </trkpt>
      <trkpt lat="47.17661" lon="5.92906">
        <ele>310</ele>
        <time>2018-02-05T12:45:55Z</time>
      </trkpt>
      <trkpt lat="47.17683" lon="5.92978">
        <ele>314</ele>
        <time>2018-02-05T12:46:55Z</time>
      </trkpt>
      <trkpt lat="47.17714" lon="5.93036">
        <ele>313</ele>
        <time>2018-02-05T12:47:55Z</time>
      </trkpt>
      <trkpt lat="47.1777" lon="5.93128">
        <ele>315</ele>
        <time>2018-02-05T12:48:55Z</time>
      </trkpt>
      <trkpt lat="47.17823" lon="5.93203">
        <ele>316</ele>
        <time>2018-02-05T12:49:55Z</time>
      </trkpt>
      <trkpt lat="47.17884" lon="5.93315">
        <ele>315</ele>
        <time>2018-02-05T12:50:55Z</time>
      </trkpt>
      <trkpt lat="47.17943" lon="5.93454">
        <ele>318</ele>
        <time>2018-02-05T12:51:55Z</time>
      </trkpt>
      <trkpt lat="47.17983" lon="5.93555">
        <ele>317</ele>
        <time>2018-02-05T12:52:55Z</time>
      </trkpt>
      <trkpt lat="47.18021" lon="5.93611">
        <ele>313</ele>
        <time>2018-02-05T12:53:55Z</time>
      </trkpt>
      <trkpt lat="47.18064" lon="5.93691">
        <ele>314</ele>
        <time>2018-02-05T12:54:55Z</time>
      </trkpt>
      <trkpt lat="47.18106" lon="5.93736">
        <ele>309</ele>
        <time>2018-02-05T12:55:55Z</time>
      </trkpt>
      <trkpt lat="47.18133" lon="5.93784">
        <ele>309</ele>
        <time>2018-02-05T12:56:55Z</time>
      </trkpt>
      <trkpt lat="47.18178" lon="5.93817">
        <ele>302</ele>
        <time>2018-02-05T12:57:55Z</time>
      </trkpt>
      <trkpt lat="47.18223" lon="5.93793">
        <ele>290</ele>
        <time>2018-02-05T12:58:55Z</time>
      </trkpt>
      <trkpt lat="47.18266" lon="5.93792">
        <ele>281</ele>
        <time>2018-02-05T12:59:55Z</time>
      </trkpt>
      <trkpt lat="47.18327" lon="5.93884">
        <ele>277</ele>
        <time>2018-02-05T13:00:55Z</time>
      </trkpt>
      <trkpt lat="47.18391" lon="5.93961">
        <ele>273</ele>
        <time>2018-02-05T13:01:55Z</time>
      </trkpt>
      <trkpt lat="47.18429" lon="5.94014">
        <ele>269</ele>
        <time>2018-02-05T13:02:55Z</time>
      </trkpt>
      <trkpt lat="47.18554" lon="5.93938">
        <ele>249</ele>
        <time>2018-02-05T13:03:55Z</time>
      </trkpt>
      <trkpt lat="47.18546" lon="5.93867">
        <ele>252.601028</ele>
        <time>2018-02-05T13:04:55Z</time>
      </trkpt>
      <trkpt lat="47.18555" lon="5.93844">
        <ele>254.450043</ele>
        <time>2018-02-05T13:05:55Z</time>
      </trkpt>
      <trkpt lat="47.18574" lon="5.9375">
        <ele>259.752502</ele>
        <time>2018-02-05T13:06:55Z</time>
      </trkpt>
      <trkpt lat="47.18584" lon="5.93673">
        <ele>258.992523</ele>
        <time>2018-02-05T13:07:55Z</time>
      </trkpt>
      <trkpt lat="47.186" lon="5.93548">
        <ele>252.088745</ele>
        <time>2018-02-05T13:08:55Z</time>
      </trkpt>
      <trkpt lat="47.18615" lon="5.93553">
        <ele>254</ele>
        <time>2018-02-05T13:09:55Z</time>
      </trkpt>
      <trkpt lat="47.18736" lon="5.9364">
        <ele>257</ele>
        <time>2018-02-05T13:10:55Z</time>
      </trkpt>
      <trkpt lat="47.18805" lon="5.93671">
        <ele>258</ele>
        <time>2018-02-05T13:11:55Z</time>
      </trkpt>
      <trkpt lat="47.1893" lon="5.93718">
        <ele>261</ele>
        <time>2018-02-05T13:12:55Z</time>
      </trkpt>
      <trkpt lat="47.19036" lon="5.93817">
        <ele>265</ele>
        <time>2018-02-05T13:13:55Z</time>
      </trkpt>
      <trkpt lat="47.19082" lon="5.93864">
        <ele>265</ele>
        <time>2018-02-05T13:14:55Z</time>
      </trkpt>
      <trkpt lat="47.19136" lon="5.93941">
        <ele>263</ele>
        <time>2018-02-05T13:15:55Z</time>
      </trkpt>
      <trkpt lat="47.1916" lon="5.93924">
        <ele>261</ele>
        <time>2018-02-05T13:16:55Z</time>
      </trkpt>
      <trkpt lat="47.19298" lon="5.94142">
        <ele>280</ele>
        <time>2018-02-05T13:17:55Z</time>
      </trkpt>
      <trkpt lat="47.19315" lon="5.94176">
        <ele>286</ele>
        <time>2018-02-05T13:18:55Z</time>
      </trkpt>
      <trkpt lat="47.19413" lon="5.94263">
        <ele>298</ele>
        <time>2018-02-05T13:19:55Z</time>
      </trkpt>
      <trkpt lat="47.1946" lon="5.94255">
        <ele>297</ele>
        <time>2018-02-05T13:20:55Z</time>
      </trkpt>
      <trkpt lat="47.19523" lon="5.94301">
        <ele>300</ele>
        <time>2018-02-05T13:21:55Z</time>
      </trkpt>
      <trkpt lat="47.1968" lon="5.94365">
        <ele>304</ele>
        <time>2018-02-05T13:22:55Z</time>
      </trkpt>
      <trkpt lat="47.19747" lon="5.9438">
        <ele>288.278748</ele>
        <time>2018-02-05T13:23:55Z</time>
      </trkpt>
      <trkpt lat="47.19823" lon="5.94458">
        <ele>289.51889</ele>
        <time>2018-02-05T13:24:55Z</time>
      </trkpt>
      <trkpt lat="47.19936" lon="5.94525">
        <ele>288.915436</ele>
        <time>2018-02-05T13:25:55Z</time>
      </trkpt>
      <trkpt lat="47.20068" lon="5.9462">
        <ele>298</ele>
        <time>2018-02-05T13:26:55Z</time>
      </trkpt>
      <trkpt lat="47.20175" lon="5.94671">
        <ele>299</ele>
        <time>2018-02-05T13:27:55Z</time>
      </trkpt>
      <trkpt lat="47.20245" lon="5.94729">
        <ele>296</ele>
        <time>2018-02-05T13:28:55Z</time>
      </trkpt>
      <trkpt lat="47.20278" lon="5.94817">
        <ele>293</ele>
        <time>2018-02-05T13:29:55Z</time>
      </trkpt>
      <trkpt lat="47.20292" lon="5.94869">
        <ele>291</ele>
        <time>2018-02-05T13:30:55Z</time>
      </trkpt>
      <trkpt lat="47.20369" lon="5.94826">
        <ele>302</ele>
        <time>2018-02-05T13:31:55Z</time>
      </trkpt>
      <trkpt lat="47.20439" lon="5.94844">
        <ele>306</ele>
        <time>2018-02-05T13:32:55Z</time>
      </trkpt>
      <trkpt lat="47.20488" lon="5.94864">
        <ele>296.820099</ele>
        <time>2018-02-05T13:33:55Z</time>
      </trkpt>
      <trkpt lat="47.2059" lon="5.94856">
        <ele>311</ele>
        <time>2018-02-05T13:34:55Z</time>
      </trkpt>
      <trkpt lat="47.2067" lon="5.94867">
        <ele>308</ele>
        <time>2018-02-05T13:35:55Z</time>
      </trkpt>
      <trkpt lat="47.20734" lon="5.94885">
        <ele>311</ele>
        <time>2018-02-05T13:36:55Z</time>
      </trkpt>
      <trkpt lat="47.20778" lon="5.94898">
        <ele>313</ele>
        <time>2018-02-05T13:37:55Z</time>
      </trkpt>
      <trkpt lat="47.20862" lon="5.94964">
        <ele>314</ele>
        <time>2018-02-05T13:38:55Z</time>
      </trkpt>
      <trkpt lat="47.2091" lon="5.95105">
        <ele>309</ele>
        <time>2018-02-05T13:39:55Z</time>
      </trkpt>
      <trkpt lat="47.20952" lon="5.9495">
        <ele>319</ele>
        <time>2018-02-05T13:40:55Z</time>
      </trkpt>
      <trkpt lat="47.20992" lon="5.94919">
        <ele>320</ele>
        <time>2018-02-05T13:41:55Z</time>
      </trkpt>
      <trkpt lat="47.21045" lon="5.94889">
        <ele>317</ele>
        <time>2018-02-05T13:42:55Z</time>
      </trkpt>
      <trkpt lat="47.21089" lon="5.94822">
        <ele>315</ele>
        <time>2018-02-05T13:43:55Z</time>
      </trkpt>
      <trkpt lat="47.21138" lon="5.94739">
        <ele>308</ele>
        <time>2018-02-05T13:44:55Z</time>
      </trkpt>
      <trkpt lat="47.21201" lon="5.94656">
        <ele>294</ele>
        <time>2018-02-05T13:45:55Z</time>
      </trkpt>
      <trkpt lat="47.21244" lon="5.94591">
        <ele>284</ele>
        <time>2018-02-05T13:46:55Z</time>
      </trkpt>
      <trkpt lat="47.2128" lon="5.94542">
        <ele>282</ele>
        <time>2018-02-05T13:47:55Z</time>
      </trkpt>
      <trkpt lat="47.21291" lon="5.94543">
        <ele>282</ele>
        <time>2018-02-05T13:48:55Z</time>
      </trkpt>
      <trkpt lat="47.21332" lon="5.94582">
        <ele>281</ele>
        <time>2018-02-05T13:49:55Z</time>
      </trkpt>
    </trkseg>
  </trk>
</gpx>